METAR Data
IDs: Format: Raw Decoded Include TAF

Data at: 2256 UTC 19 Jan 2019

PAMH 192156Z AUTO 00000KT 9SM -SN OVC011 M17/M19 A2988 RMK AO2 SNB02 SLP874 P0000 T11671189 FZRANO
PAMH 192056Z AUTO 00000KT 10SM OVC013 M17/M19 A2988 RMK AO2 SLP873 T11671189 55001 FZRANO
PAMH 192021Z AUTO 00000KT 10SM OVC013 M17/M19 A2988 RMK AO2 FZRANO
PAMH 191956Z AUTO 00000KT 10SM OVC015 M17/M19 A2988 RMK AO2 SLP873 T11671189 FZRANO
PAMH 191856Z AUTO 00000KT 10SM OVC017 M17/M19 A2988 RMK AO2 SLP873 T11721194 FZRANO
PAMH 191756Z AUTO 00000KT 10SM OVC019 M17/M19 A2988 RMK AO2 SLP874 60000 T11721194 11167 21172 55001 FZRANO
PAMH 191656Z AUTO 00000KT 9SM OVC021 M17/M19 A2988 RMK AO2 SNB1559E52 SLP873 P0000 T11721194 FZRANO
PAMH 191556Z AUTO 00000KT 10SM OVC019 M17/M19 A2988 RMK AO2 SLP874 T11721194 FZRANO
PAMH 191456Z AUTO 00000KT 10SM OVC017 M17/M19 A2988 RMK AO2 SLP875 60000 T11671189 58003 FZRANO
PAMH 191356Z AUTO 00000KT 10SM OVC017 M17/M19 A2989 RMK AO2 SNE33 SLP876 P0000 T11671189 FZRANO
PAMH 191256Z AUTO 00000KT 9SM -SN OVC015 M17/M19 A2990 RMK AO2 SNB15 SLP879 P0000 T11671194 FZRANO
PAMH 191156Z AUTO 00000KT 10SM OVC015 M17/M19 A2989 RMK AO2 SLP878 60000 T11671194 11167 21178 52003 FZRANO
PAMH 191056Z AUTO 00000KT 10SM OVC019 M17/M19 A2989 RMK AO2 SLP877 T11721194 FZRANO
PAMH 190956Z AUTO 00000KT 10SM OVC017 M17/M19 A2989 RMK AO2 SLP876 T11721189 FZRANO
PAMH 190856Z AUTO 00000KT 10SM OVC017 M17/M19 A2988 RMK AO2 SLP875 60000 T11721194 411671233 58001 FZRANO
PAMH 190756Z AUTO 00000KT 10SM OVC015 M17/M19 A2989 RMK AO2 SLP877 T11721194 FZRANO
PAMH 190656Z AUTO 00000KT 9SM OVC017 M18/M20 A2989 RMK AO2 SNE54 SLP876 P0000 T11781200 FZRANO
PAMH 190556Z AUTO 00000KT 9SM -SN OVC017 M18/M20 A2989 RMK AO2 SNB22 SLP875 P0000 60000 T11781200 11172 21178 58001 FZRANO
PAMH 190456Z AUTO 00000KT 10SM OVC017 M18/M20 A2989 RMK AO2 SNB32E47 SLP876 P0000 T11781200 FZRANO
PAMH 190411Z AUTO 00000KT 10SM SCT010 OVC017 M18/M19 A2989 RMK AO2 FZRANO
PAMH 190356Z AUTO 00000KT 10SM BKN010 OVC017 M18/M20 A2989 RMK AO2 SNE36 SLP877 P0000 T11781200 FZRANO
PAMH 190308Z AUTO VRB03KT 9SM OVC010 M18/M20 A2989 RMK AO2 SNE06 P0000 FZRANO
PAMH 190256Z AUTO 00000KT 9SM -SN OVC008 M18/M20 A2989 RMK AO2 SLP877 P0000 60000 T11781200 56001 FZRANO
PAMH 190156Z AUTO 00000KT 9SM -SN OVC008 M18/M20 A2989 RMK AO2 SNB33 CIG 007V010 SLP878 P0000 T11781200 FZRANO
PAMH 190140Z AUTO 00000KT 9SM -SN BKN008 OVC012 M18/M20 A2989 RMK AO2 SNB33 CIG 007V010 P0000 FZRANO
PAMH 190106Z AUTO 00000KT 10SM FEW007 OVC012 M18/M20 A2989 RMK AO2 FZRANO
PAMH 190056Z AUTO 00000KT 9SM BKN007 OVC012 M17/M19 A2988 RMK AO2 SNB07E56 SLP875 P0000 T11721194 FZRANO
PAMH 182356Z AUTO 00000KT 9SM OVC009 M17/M19 A2989 RMK AO2 SNE54 SLP877 P0000 60000 T11721194 11167 21189 53003 FZRANO
PAMH 182256Z AUTO 00000KT 9SM -SN OVC009 M17/M18 A2989 RMK AO2 SNB2157 SLP877 P0000 T11671183 FZRANO
PAMH 182231Z AUTO 00000KT 9SM -SN OVC009 M17/M19 A2989 RMK AO2 SNB2157 CIG 008V012 P0000 FZRANO
PAMH 182206Z AUTO 00000KT 9SM -SN OVC011 M17/M18 A2988 RMK AO2 SNB2157 P0000 FZRANO
PAMH 182156Z AUTO 00000KT 9SM OVC009 M17/M18 A2988 RMK AO2 SNB44E53 CIG 007V012 SLP875 P0000 T11671183 FZRANO
PAMH 182056Z AUTO 00000KT 10SM OVC009 M18/M20 A2988 RMK AO2 CIG 008V012 SLP875 60000 T11781200 51006 FZRANO
PAMH 181956Z AUTO 00000KT 10SM OVC013 M18/M21 A2988 RMK AO2 SLP874 T11831206 FZRANO
PAMH 181930Z AUTO 00000KT 10SM OVC013 M18/M21 A2988 RMK AO2 FZRANO
PAMH 181856Z AUTO 00000KT 10SM OVC015 M19/M21 A2988 RMK AO2 SNE31 SLP872 P0000 T11891206 FZRANO
PAMH 181756Z AUTO 00000KT 9SM -SN OVC017 M19/M21 A2986 RMK AO2 SLP868 P0000 60000 T11891211 11189 21206 53002 FZRANO
PAMH 181656Z AUTO 00000KT 10SM -SN OVC017 M19/M21 A2986 RMK AO2 SLP867 P0000 T11891211 FZRANO
PAMH 181556Z AUTO 00000KT 9SM -SN OVC017 M20/M22 A2986 RMK AO2 SLP867 P0000 T12001217 FZRANO
PAMH 181456Z AUTO 00000KT 10SM -SN OVC017 M20/M22 A2986 RMK AO2 SNB56 SLP866 P0000 60000 T12001217 50000 FZRANO
PAMH 181356Z AUTO 00000KT 10SM OVC017 M19/M21 A2986 RMK AO2 SLP867 T11891211 FZRANO
PAMH 181256Z AUTO 00000KT 10SM OVC015 M19/M22 A2986 RMK AO2 SNE47 SLP867 P0000 T11941217 FZRANO
PAMH 181217Z AUTO 00000KT 9SM -SN OVC015 M20/M22 A2986 RMK AO2 P0000 FZRANO
PAMH 181156Z AUTO 00000KT 9SM -SN OVC013 M21/M23 A2986 RMK AO2 SLP866 P0000 60000 T12061228 11200 21244 50002 FZRANO